createdAt,value
2022-12-17T00:02:36.399Z,100424.39
2022-12-17T00:05:24.197Z,100432.96
2022-12-17T00:08:16.044Z,100442.81
2022-12-17T00:11:03.307Z,100434.70
2022-12-17T00:13:49.929Z,100422.58
2022-12-17T00:16:36.744Z,100427.39
2022-12-17T00:19:23.490Z,100434.02
2022-12-17T00:22:10.401Z,100438.02
2022-12-17T00:24:56.837Z,100440.35
2022-12-17T00:27:43.405Z,100442.02
2022-12-17T00:30:32.610Z,100434.58
2022-12-17T00:33:19.241Z,100433.64
2022-12-17T00:36:11.017Z,100449.77
2022-12-17T00:38:57.764Z,100454.52
2022-12-17T00:41:46.024Z,100455.16
2022-12-17T00:44:32.578Z,100461.88
2022-12-17T00:47:19.768Z,100469.23
2022-12-17T00:50:08.285Z,100470.27
2022-12-17T00:53:03.234Z,100474.60
2022-12-17T00:55:50.025Z,100476.05
2022-12-17T00:58:36.919Z,100475.83
2022-12-17T01:01:23.926Z,100477.59
2022-12-17T01:04:10.918Z,100480.11
2022-12-17T01:06:57.644Z,100483.19
2022-12-17T01:09:44.168Z,100482.29
2022-12-17T01:12:30.715Z,100486.02
2022-12-17T01:15:17.590Z,100490.89
2022-12-17T01:18:04.216Z,100490.30
2022-12-17T01:20:50.737Z,100493.15
2022-12-17T01:23:38.064Z,100496.86
2022-12-17T01:26:25.009Z,100484.98
2022-12-17T01:29:11.467Z,100475.64
2022-12-17T01:32:01.694Z,100472.61
2022-12-17T01:34:48.439Z,100482.00
2022-12-17T01:37:34.844Z,100489.32
2022-12-17T01:40:21.758Z,100492.50
2022-12-17T01:43:08.602Z,100490.73
2022-12-17T01:46:05.326Z,100491.38
2022-12-17T01:48:57.911Z,100492.63
2022-12-17T01:51:45.790Z,100496.16
2022-12-17T01:54:33.108Z,100499.29
2022-12-17T01:57:20.299Z,100499.77
2022-12-17T02:00:11.280Z,100503.46
2022-12-17T02:03:00.620Z,100510.63
2022-12-17T02:06:01.056Z,100516.55
2022-12-17T02:08:56.714Z,100518.71
2022-12-17T02:11:51.817Z,100523.88
2022-12-17T02:14:46.529Z,100526.63
2022-12-17T02:17:39.958Z,100528.77
2022-12-17T02:20:39.656Z,100521.59
2022-12-17T02:23:38.030Z,100518.59
2022-12-17T02:26:40.069Z,100517.39
2022-12-17T02:29:27.771Z,100512.03
2022-12-17T02:32:14.961Z,100513.36
2022-12-17T02:35:05.790Z,100513.34
2022-12-17T02:37:52.732Z,100508.20
2022-12-17T02:40:42.559Z,100504.64
2022-12-17T02:43:25.991Z,100501.56
2022-12-17T02:46:13.460Z,100502.18
2022-12-17T02:49:00.926Z,100504.65
2022-12-17T02:51:48.726Z,100505.45
2022-12-17T02:54:35.552Z,100508.77
2022-12-17T02:57:24.456Z,100508.20
2022-12-17T03:00:11.124Z,100504.30
2022-12-17T03:02:57.979Z,100501.20
2022-12-17T03:05:45.925Z,100501.66
2022-12-17T03:08:33.188Z,100506.00
2022-12-17T03:11:19.651Z,100512.48
2022-12-17T03:14:06.115Z,100511.30
2022-12-17T03:16:52.862Z,100503.91
2022-12-17T03:19:39.586Z,100507.80
2022-12-17T03:22:26.480Z,100509.99
2022-12-17T03:25:13.457Z,100507.06
2022-12-17T03:28:00.270Z,100508.19
2022-12-17T03:30:49.097Z,100512.40
2022-12-17T03:33:36.413Z,100513.63
2022-12-17T03:36:24.206Z,100514.41
2022-12-17T03:39:11.079Z,100517.08
2022-12-17T03:41:57.759Z,100514.89
2022-12-17T03:44:44.423Z,100518.68
2022-12-17T03:47:31.142Z,100531.80
2022-12-17T03:50:17.690Z,100524.16
2022-12-17T03:53:04.547Z,100512.49
2022-12-17T03:55:51.082Z,100514.20
2022-12-17T03:58:37.660Z,100517.73
2022-12-17T04:01:24.788Z,100525.13
2022-12-17T04:04:11.456Z,100532.42
2022-12-17T04:06:57.924Z,100532.13
2022-12-17T04:09:44.405Z,100519.16
2022-12-17T04:12:31.119Z,100508.00
2022-12-17T04:15:17.869Z,100513.14
2022-12-17T04:18:04.744Z,100514.86
2022-12-17T04:20:51.426Z,100526.83
2022-12-17T04:23:38.223Z,100535.20
2022-12-17T04:26:25.335Z,100527.88
2022-12-17T04:29:11.071Z,100534.96
2022-12-17T04:31:57.946Z,100544.84
2022-12-17T04:34:44.692Z,100556.52
2022-12-17T04:37:31.107Z,100566.88
2022-12-17T04:40:17.454Z,100578.86
2022-12-17T04:43:04.103Z,100584.33
2022-12-17T04:45:50.871Z,100584.48
2022-12-17T04:48:37.591Z,100586.73
2022-12-17T04:51:24.492Z,100589.57
2022-12-17T04:54:11.364Z,100598.15
2022-12-17T04:56:57.205Z,100601.69
2022-12-17T04:59:44.091Z,100608.79
2022-12-17T05:02:30.959Z,100620.94
2022-12-17T05:05:17.813Z,100633.54
2022-12-17T05:08:04.945Z,100631.71
2022-12-17T05:10:51.348Z,100638.19
2022-12-17T05:13:38.200Z,100641.76
2022-12-17T05:16:26.537Z,100643.66
2022-12-17T05:19:13.499Z,100643.94
2022-12-17T05:22:00.216Z,100651.33
2022-12-17T05:24:47.022Z,100651.59
2022-12-17T05:27:33.523Z,100649.02
2022-12-17T05:30:20.287Z,100651.30
2022-12-17T05:33:15.539Z,100646.02
2022-12-17T05:36:01.930Z,100641.02
2022-12-17T05:38:48.750Z,100636.05
2022-12-17T05:41:35.387Z,100641.05
2022-12-17T05:44:22.321Z,100641.89
2022-12-17T05:47:17.125Z,100640.09
2022-12-17T05:50:03.583Z,100636.15
2022-12-17T05:52:50.602Z,100636.46
2022-12-17T05:55:37.355Z,100643.94
2022-12-17T05:58:25.704Z,100644.33
2022-12-17T06:01:15.614Z,100647.07
2022-12-17T06:04:02.380Z,100649.17
2022-12-17T06:06:49.149Z,100649.98
2022-12-17T06:09:35.716Z,100646.38
2022-12-17T06:12:22.879Z,100645.86
2022-12-17T06:15:09.455Z,100647.09
2022-12-17T06:17:56.361Z,100649.02
2022-12-17T06:20:43.111Z,100649.04
2022-12-17T06:23:30.204Z,100649.17
2022-12-17T06:26:16.684Z,100653.83
2022-12-17T06:29:03.574Z,100663.33
2022-12-17T06:31:50.424Z,100673.40
2022-12-17T06:34:37.181Z,100674.06
2022-12-17T06:37:24.538Z,100686.14
2022-12-17T06:40:11.213Z,100698.95
2022-12-17T06:42:58.043Z,100708.02
2022-12-17T06:45:44.955Z,100712.86
2022-12-17T06:48:46.159Z,100724.26
2022-12-17T06:51:32.726Z,100733.40
2022-12-17T06:54:19.572Z,100738.17
2022-12-17T06:57:08.628Z,100736.10
2022-12-17T06:59:55.297Z,100726.96
2022-12-17T07:02:50.175Z,100719.81
2022-12-17T07:05:36.722Z,100724.02
2022-12-17T07:08:23.646Z,100735.31
2022-12-17T07:11:10.187Z,100741.67
2022-12-17T07:13:56.671Z,100738.86
2022-12-17T07:16:43.151Z,100739.02
2022-12-17T07:19:44.482Z,100743.75
2022-12-17T07:22:31.412Z,100741.20
2022-12-17T07:25:18.114Z,100739.19
2022-12-17T07:28:12.842Z,100744.73
2022-12-17T07:31:11.283Z,100747.52
2022-12-17T07:33:57.826Z,100754.22
2022-12-17T07:36:49.969Z,100754.53
2022-12-17T07:39:36.602Z,100752.08
2022-12-17T07:42:23.569Z,100752.77
2022-12-17T07:45:06.402Z,100761.59
2022-12-17T07:47:52.997Z,100772.68
2022-12-17T07:50:39.614Z,100777.03
2022-12-17T07:53:26.416Z,100779.92
2022-12-17T07:56:12.863Z,100785.52
2022-12-17T07:58:58.440Z,100788.07
2022-12-17T08:01:44.391Z,100786.88
2022-12-17T08:04:31.456Z,100780.85
2022-12-17T08:07:18.232Z,100785.41
2022-12-17T08:10:05.752Z,100794.83
2022-12-17T08:12:52.345Z,100793.27
2022-12-17T08:15:38.692Z,100789.41
2022-12-17T08:18:26.850Z,100793.95
2022-12-17T08:21:14.187Z,100794.75
2022-12-17T08:24:00.791Z,100802.46
2022-12-17T08:26:48.304Z,100804.88
2022-12-17T08:29:35.301Z,100804.62
2022-12-17T08:32:21.758Z,100809.59
2022-12-17T08:35:08.309Z,100816.00
2022-12-17T08:37:55.322Z,100820.07
2022-12-17T08:40:42.212Z,100825.76
2022-12-17T08:43:28.733Z,100824.92
2022-12-17T08:46:15.710Z,100823.36
2022-12-17T08:49:02.465Z,100827.30
2022-12-17T08:51:49.379Z,100830.33
2022-12-17T08:54:37.017Z,100830.54
2022-12-17T08:57:31.382Z,100834.90
2022-12-17T09:00:15.556Z,100834.85
2022-12-17T09:03:02.854Z,100841.21
2022-12-17T09:05:49.910Z,100848.42
2022-12-17T09:08:36.808Z,100854.91
2022-12-17T09:11:23.710Z,100858.91
2022-12-17T09:14:10.228Z,100855.77
2022-12-17T09:16:56.799Z,100853.75
2022-12-17T09:19:43.354Z,100861.33
2022-12-17T09:22:30.674Z,100859.41
2022-12-17T09:25:17.581Z,100862.14
2022-12-17T09:28:04.226Z,100867.17
2022-12-17T09:30:51.014Z,100874.59
2022-12-17T09:33:39.151Z,100875.10
2022-12-17T09:36:28.219Z,100882.55
2022-12-17T09:39:14.897Z,100887.04
2022-12-17T09:42:10.754Z,100884.42
2022-12-17T09:45:03.909Z,100882.12
2022-12-17T09:47:59.471Z,100882.58
2022-12-17T09:50:46.497Z,100881.91
2022-12-17T09:53:40.934Z,100880.70
2022-12-17T09:56:33.274Z,100876.45
2022-12-17T09:59:19.988Z,100880.77
2022-12-17T10:02:07.504Z,100884.60
2022-12-17T10:04:58.017Z,100882.89
2022-12-17T10:08:01.723Z,100886.19
2022-12-17T10:10:51.812Z,100890.63
2022-12-17T10:13:41.155Z,100891.58
2022-12-17T10:16:42.363Z,100883.88
2022-12-17T10:19:34.348Z,100887.86
2022-12-17T10:22:29.535Z,100899.43
2022-12-17T10:25:16.206Z,100905.53
2022-12-17T10:28:02.906Z,100910.20
2022-12-17T10:30:50.582Z,100914.83
2022-12-17T10:33:39.348Z,100915.45
2022-12-17T10:36:40.508Z,100923.05
2022-12-17T10:39:34.776Z,100931.98
2022-12-17T10:42:21.817Z,100928.39
2022-12-17T10:45:08.807Z,100931.58
2022-12-17T10:48:02.603Z,100937.27
2022-12-17T10:50:52.004Z,100936.35
2022-12-17T10:53:41.493Z,100926.59
2022-12-17T10:56:42.963Z,100928.45
2022-12-17T10:59:43.267Z,100937.04
2022-12-17T11:02:38.557Z,100935.23
2022-12-17T11:05:32.447Z,100941.23
2022-12-17T11:08:20.558Z,100950.26
2022-12-17T11:11:07.794Z,100946.64
2022-12-17T11:13:59.782Z,100943.84
2022-12-17T11:16:50.272Z,100943.63
2022-12-17T11:19:49.342Z,100944.90
2022-12-17T11:22:43.800Z,100944.61
2022-12-17T11:25:45.184Z,100938.05
2022-12-17T11:28:39.925Z,100936.93
2022-12-17T11:31:43.469Z,100936.42
2022-12-17T11:34:41.275Z,100943.11
2022-12-17T11:37:35.312Z,100945.59
2022-12-17T11:40:35.521Z,100945.43
2022-12-17T11:43:33.041Z,100958.85
2022-12-17T11:46:33.139Z,100969.32
2022-12-17T11:49:28.695Z,100966.95
2022-12-17T11:52:23.970Z,100967.94
2022-12-17T11:55:18.773Z,100969.82
2022-12-17T11:58:12.408Z,100973.41
2022-12-17T12:01:13.122Z,100974.63
2022-12-17T12:04:15.104Z,100982.16
2022-12-17T12:07:14.909Z,100984.80
2022-12-17T12:10:11.328Z,100985.11
2022-12-17T12:13:10.436Z,100978.20
2022-12-17T12:16:07.812Z,100984.55
2022-12-17T12:19:06.014Z,100993.02
2022-12-17T12:21:58.350Z,100986.63
2022-12-17T12:25:10.375Z,100990.54
2022-12-17T12:28:07.334Z,100988.71
2022-12-17T12:31:00.792Z,100987.92
2022-12-17T12:33:58.430Z,100996.64
2022-12-17T12:36:46.379Z,101010.73
2022-12-17T12:39:40.959Z,101018.86
2022-12-17T12:42:34.927Z,101019.77
2022-12-17T12:45:25.849Z,101022.80
2022-12-17T12:48:17.805Z,101026.06
2022-12-17T12:51:13.315Z,101024.75
2022-12-17T12:54:01.663Z,101025.70
2022-12-17T12:56:52.746Z,101025.89
2022-12-17T12:59:45.608Z,101029.14
2022-12-17T13:02:46.177Z,101028.38
2022-12-17T13:05:34.236Z,101026.14
2022-12-17T13:08:16.418Z,101028.97
2022-12-17T13:10:45.532Z,101033.34
2022-12-17T13:13:27.528Z,101037.42
2022-12-17T13:15:59.788Z,101037.80
2022-12-17T13:18:34.125Z,101036.71
2022-12-17T13:21:24.276Z,101034.09
2022-12-17T13:23:53.152Z,101036.20
2022-12-17T13:26:24.748Z,101044.86
2022-12-17T13:29:12.435Z,101042.17
2022-12-17T13:31:51.257Z,101045.05
2022-12-17T13:34:28.885Z,101044.09
2022-12-17T13:37:05.677Z,101044.89
2022-12-17T13:39:43.239Z,101048.33
2022-12-17T13:42:22.381Z,101055.74
2022-12-17T13:44:52.774Z,101053.29
2022-12-17T13:47:24.968Z,101055.11
2022-12-17T13:50:24.841Z,101053.96
2022-12-17T13:52:44.132Z,101056.69
2022-12-17T13:55:20.497Z,101061.61
2022-12-17T13:57:50.220Z,101060.62
2022-12-17T14:00:25.542Z,101062.41
2022-12-17T14:02:55.058Z,101065.19
2022-12-17T14:05:28.889Z,101070.40
2022-12-17T14:08:01.154Z,101077.15
2022-12-17T14:10:30.373Z,101081.35
2022-12-17T14:13:06.298Z,101089.48
2022-12-17T14:15:35.824Z,101092.15
2022-12-17T14:18:04.973Z,101093.13
2022-12-17T14:20:35.660Z,101093.02
2022-12-17T14:23:10.646Z,101095.42
2022-12-17T14:25:42.935Z,101101.11
2022-12-17T14:28:23.598Z,101108.57
2022-12-17T14:31:26.189Z,101118.92
2022-12-17T14:34:06.791Z,101122.81
2022-12-17T14:36:37.617Z,101126.35
2022-12-17T14:39:16.561Z,101134.77
2022-12-17T14:42:03.730Z,101135.91
2022-12-17T14:44:32.502Z,101133.12
2022-12-17T14:47:14.285Z,101137.59
2022-12-17T14:49:55.253Z,101137.95
2022-12-17T14:52:40.318Z,101135.13
2022-12-17T14:55:27.290Z,101139.45
2022-12-17T14:58:16.128Z,101145.65
2022-12-17T15:00:46.718Z,101146.14
2022-12-17T15:03:20.997Z,101144.51
2022-12-17T15:05:54.781Z,101145.48
2022-12-17T15:08:23.630Z,101144.10
2022-12-17T15:10:52.068Z,101151.95
2022-12-17T15:13:20.461Z,101154.64
2022-12-17T15:15:49.217Z,101159.84
2022-12-17T15:18:17.982Z,101162.27
2022-12-17T15:20:46.484Z,101163.70
2022-12-17T15:23:18.123Z,101169.49
2022-12-17T15:25:48.889Z,101169.53
2022-12-17T15:28:18.961Z,101175.53
2022-12-17T15:30:52.968Z,101177.23
2022-12-17T15:33:21.557Z,101179.45
2022-12-17T15:35:50.037Z,101181.85
2022-12-17T15:38:18.831Z,101185.80
2022-12-17T15:40:47.414Z,101185.00
2022-12-17T15:43:15.796Z,101183.20
2022-12-17T15:45:46.707Z,101186.83
2022-12-17T15:48:17.500Z,101191.15
2022-12-17T15:50:46.824Z,101198.44
2022-12-17T15:53:15.459Z,101201.36
2022-12-17T15:55:44.350Z,101202.90
2022-12-17T15:58:13.457Z,101208.50
2022-12-17T16:00:42.043Z,101210.32
2022-12-17T16:03:10.559Z,101209.25
2022-12-17T16:05:39.541Z,101216.58
2022-12-17T16:08:08.053Z,101219.91
2022-12-17T16:10:38.138Z,101220.50
2022-12-17T16:13:06.919Z,101220.89
2022-12-17T16:15:35.723Z,101213.41
2022-12-17T16:18:04.612Z,101219.80
2022-12-17T16:20:33.196Z,101221.33
2022-12-17T16:23:01.860Z,101223.89
2022-12-17T16:25:30.442Z,101222.83
2022-12-17T16:28:13.561Z,101223.77
2022-12-17T16:30:42.167Z,101226.73
2022-12-17T16:33:10.844Z,101227.46
2022-12-17T16:35:39.429Z,101228.72
2022-12-17T16:38:08.121Z,101232.54
2022-12-17T16:40:40.188Z,101238.40
2022-12-17T16:43:09.896Z,101242.91
2022-12-17T16:45:47.849Z,101251.02
2022-12-17T16:48:18.744Z,101253.90
2022-12-17T16:50:48.242Z,101258.70
2022-12-17T16:53:17.958Z,101261.19
2022-12-17T16:55:47.772Z,101262.26
2022-12-17T16:58:17.532Z,101267.50
2022-12-17T17:00:53.438Z,101270.64
2022-12-17T17:03:22.492Z,101272.44
2022-12-17T17:05:51.641Z,101275.81
2022-12-17T17:08:22.469Z,101278.11
2022-12-17T17:10:51.157Z,101277.35
2022-12-17T17:13:19.860Z,101285.45
2022-12-17T17:15:48.275Z,101292.36
2022-12-17T17:18:18.604Z,101297.53
2022-12-17T17:20:49.782Z,101301.85
2022-12-17T17:23:18.178Z,101305.64
2022-12-17T17:25:58.270Z,101313.47
2022-12-17T17:28:27.246Z,101316.25
2022-12-17T17:31:00.772Z,101313.71
2022-12-17T17:33:30.906Z,101313.17
2022-12-17T17:36:04.854Z,101307.71
2022-12-17T17:38:35.214Z,101312.63
2022-12-17T17:41:05.030Z,101311.34
2022-12-17T17:43:33.793Z,101315.14
2022-12-17T17:46:07.091Z,101318.56
2022-12-17T17:48:36.887Z,101322.65
2022-12-17T17:51:08.356Z,101322.55
2022-12-17T17:53:37.002Z,101330.12
2022-12-17T17:56:14.280Z,101329.53
2022-12-17T17:58:50.801Z,101326.77
2022-12-17T18:01:23.757Z,101325.95
2022-12-17T18:03:53.258Z,101332.66
2022-12-17T18:06:22.088Z,101338.01
2022-12-17T18:08:50.623Z,101339.39
2022-12-17T18:11:23.263Z,101343.20
2022-12-17T18:13:55.847Z,101343.65
2022-12-17T18:16:26.771Z,101344.73
2022-12-17T18:18:57.969Z,101347.56
2022-12-17T18:21:29.280Z,101352.01
2022-12-17T18:24:00.486Z,101356.67
2022-12-17T18:26:30.498Z,101363.21
2022-12-17T18:29:02.359Z,101370.66
2022-12-17T18:31:32.148Z,101376.73
2022-12-17T18:34:03.207Z,101378.44
2022-12-17T18:36:34.528Z,101381.73
2022-12-17T18:39:06.126Z,101384.02
2022-12-17T18:42:07.623Z,101382.64
2022-12-17T18:44:38.813Z,101387.85
2022-12-17T18:47:09.961Z,101390.98
2022-12-17T18:49:39.101Z,101393.48
2022-12-17T18:52:13.168Z,101395.96
2022-12-17T18:54:45.600Z,101402.59
2022-12-17T18:57:14.189Z,101401.82
2022-12-17T18:59:42.938Z,101400.49
2022-12-17T19:02:12.539Z,101406.23
2022-12-17T19:04:43.020Z,101412.23
2022-12-17T19:07:12.387Z,101412.41
2022-12-17T19:09:41.782Z,101413.08
2022-12-17T19:12:11.210Z,101412.70
2022-12-17T19:14:40.108Z,101414.11
2022-12-17T19:17:09.303Z,101413.66
2022-12-17T19:19:37.911Z,101418.55
2022-12-17T19:22:06.505Z,101421.19
2022-12-17T19:24:37.105Z,101419.55
2022-12-17T19:27:05.796Z,101420.36
2022-12-17T19:29:34.687Z,101423.64
2022-12-17T19:32:03.344Z,101427.68
2022-12-17T19:34:39.147Z,101433.85
2022-12-17T19:37:07.932Z,101434.86
2022-12-17T19:39:36.527Z,101437.70
2022-12-17T19:42:05.505Z,101437.21
2022-12-17T19:44:36.364Z,101441.71
2022-12-17T19:47:05.366Z,101439.66
2022-12-17T19:49:37.948Z,101438.04
2022-12-17T19:52:15.482Z,101450.34
2022-12-17T19:54:44.301Z,101459.54
2022-12-17T19:57:12.785Z,101459.99
2022-12-17T19:59:44.746Z,101460.36
2022-12-17T20:02:16.726Z,101462.95
2022-12-17T20:04:46.625Z,101465.16
2022-12-17T20:07:15.115Z,101472.29
2022-12-17T20:09:44.526Z,101470.89
2022-12-17T20:12:13.333Z,101472.61
2022-12-17T20:14:42.389Z,101473.19
2022-12-17T20:17:11.040Z,101476.73
2022-12-17T20:19:39.566Z,101478.48
2022-12-17T20:22:08.062Z,101478.98
2022-12-17T20:24:38.625Z,101478.38
2022-12-17T20:27:07.520Z,101481.75
2022-12-17T20:29:35.961Z,101487.26
2022-12-17T20:32:05.154Z,101487.30
2022-12-17T20:34:34.047Z,101492.90
2022-12-17T20:37:02.487Z,101494.88
2022-12-17T20:39:32.187Z,101498.48
2022-12-17T20:42:00.931Z,101500.64
2022-12-17T20:44:29.510Z,101507.27
2022-12-17T20:46:58.204Z,101507.24
2022-12-17T20:49:26.653Z,101510.08
2022-12-17T20:51:55.294Z,101514.88
2022-12-17T20:54:23.775Z,101520.93
2022-12-17T20:56:52.846Z,101520.77
2022-12-17T20:59:21.249Z,101521.91
2022-12-17T21:01:54.447Z,101530.25
2022-12-17T21:04:24.863Z,101538.84
2022-12-17T21:06:53.493Z,101544.55
2022-12-17T21:09:24.678Z,101551.77
2022-12-17T21:11:53.482Z,101551.98
2022-12-17T21:14:22.167Z,101554.47
2022-12-17T21:16:51.195Z,101555.23
2022-12-17T21:19:20.568Z,101552.58
2022-12-17T21:21:49.242Z,101553.27
2022-12-17T21:24:17.828Z,101556.61
2022-12-17T21:26:46.862Z,101555.77
2022-12-17T21:29:16.436Z,101557.60
2022-12-17T21:31:47.799Z,101564.33
2022-12-17T21:34:18.211Z,101570.38
2022-12-17T21:36:47.617Z,101577.11
2022-12-17T21:39:18.989Z,101577.64
2022-12-17T21:42:09.015Z,101577.98
2022-12-17T21:44:37.744Z,101580.73
2022-12-17T21:47:06.637Z,101581.08
2022-12-17T21:49:35.627Z,101587.72
2022-12-17T21:52:05.514Z,101587.70
2022-12-17T21:54:38.326Z,101585.14
2022-12-17T21:57:07.291Z,101585.36
2022-12-17T21:59:35.817Z,101586.44
2022-12-17T22:02:05.341Z,101582.58
2022-12-17T22:04:34.018Z,101584.77
2022-12-17T22:07:08.726Z,101585.31
2022-12-17T22:09:47.677Z,101589.61
2022-12-17T22:12:48.047Z,101593.51
2022-12-17T22:15:16.471Z,101589.94
2022-12-17T22:17:46.954Z,101594.19
2022-12-17T22:20:16.255Z,101600.89
2022-12-17T22:22:45.101Z,101606.16
2022-12-17T22:25:13.964Z,101610.09
2022-12-17T22:27:42.880Z,101612.41
2022-12-17T22:30:33.507Z,101614.02
2022-12-17T22:33:07.060Z,101620.66
2022-12-17T22:37:31.713Z,101623.80
2022-12-17T22:42:07.596Z,101634.14
2022-12-17T22:44:35.118Z,101642.42
2022-12-17T22:44:51.229Z,101640.60
2022-12-17T22:47:22.000Z,101641.89
2022-12-17T22:49:50.317Z,101649.14
2022-12-17T22:52:19.373Z,101647.50
2022-12-17T22:54:49.205Z,101652.98
2022-12-17T22:57:37.107Z,101656.73
2022-12-17T23:00:13.582Z,101665.13
2022-12-17T23:02:41.944Z,101670.09
2022-12-17T23:05:10.621Z,101672.23
2022-12-17T23:07:39.024Z,101671.39
2022-12-17T23:10:08.852Z,101673.14
2022-12-17T23:12:52.495Z,101671.45
2022-12-17T23:15:23.807Z,101671.26
2022-12-17T23:17:53.657Z,101665.66
2022-12-17T23:20:23.346Z,101665.98
2022-12-17T23:22:51.693Z,101660.75
2022-12-17T23:25:21.038Z,101656.17
2022-12-17T23:27:49.571Z,101651.03
2022-12-17T23:30:18.801Z,101651.59
2022-12-17T23:32:47.104Z,101654.46
2022-12-17T23:35:15.450Z,101661.45
2022-12-17T23:37:43.830Z,101665.64
2022-12-17T23:40:13.618Z,101671.30
2022-12-17T23:42:42.005Z,101674.46
2022-12-17T23:45:11.470Z,101678.81
2022-12-17T23:47:40.427Z,101679.92
2022-12-17T23:50:10.956Z,101684.95
2022-12-17T23:52:39.293Z,101691.23
2022-12-17T23:55:10.531Z,101695.19
2022-12-17T23:57:39.041Z,101698.55
